createdAt,value
2022-12-09T00:00:30.086Z,7.38
2022-12-09T00:02:58.223Z,8.57
2022-12-09T00:05:25.613Z,8.70
2022-12-09T00:07:52.522Z,8.68
2022-12-09T00:10:19.351Z,8.40
2022-12-09T00:12:46.313Z,8.48
2022-12-09T00:15:13.130Z,8.07
2022-12-09T00:17:40.010Z,8.50
2022-12-09T00:20:07.900Z,9.40
2022-12-09T00:22:34.901Z,11.25
2022-12-09T00:25:01.833Z,9.30
2022-12-09T00:27:28.844Z,9.10
2022-12-09T00:29:56.031Z,9.82
2022-12-09T00:32:23.080Z,9.52
2022-12-09T00:34:50.015Z,10.48
2022-12-09T00:37:17.069Z,10.15
2022-12-09T00:39:43.982Z,10.63
2022-12-09T00:42:10.787Z,11.10
2022-12-09T00:44:37.522Z,10.73
2022-12-09T00:47:04.498Z,9.70
2022-12-09T00:49:31.271Z,9.88
2022-12-09T00:51:58.060Z,9.55
2022-12-09T00:54:25.219Z,9.27
2022-12-09T00:56:51.963Z,8.95
2022-12-09T00:59:18.700Z,9.10
2022-12-09T01:01:45.559Z,10.00
2022-12-09T01:04:12.747Z,9.48
2022-12-09T01:06:39.583Z,10.77
2022-12-09T01:09:06.646Z,9.90
2022-12-09T01:11:33.449Z,10.77
2022-12-09T01:14:03.077Z,11.57
2022-12-09T01:16:32.509Z,10.32
2022-12-09T01:19:01.800Z,10.60
2022-12-09T01:21:30.002Z,12.07
2022-12-09T01:23:56.899Z,11.80
2022-12-09T01:26:24.172Z,11.85
2022-12-09T01:28:52.964Z,11.52
2022-12-09T01:31:23.315Z,12.05
2022-12-09T01:33:50.663Z,12.70
2022-12-09T01:36:24.543Z,12.23
2022-12-09T01:38:52.050Z,12.77
2022-12-09T01:41:20.807Z,13.32
2022-12-09T01:44:07.512Z,13.10
2022-12-09T01:46:34.713Z,11.52
2022-12-09T01:49:01.793Z,12.88
2022-12-09T01:51:30.475Z,12.02
2022-12-09T01:53:57.848Z,12.25
2022-12-09T01:56:32.892Z,12.65
2022-12-09T01:59:04.206Z,13.07
2022-12-09T02:01:31.421Z,11.55
2022-12-09T02:03:58.997Z,12.43
2022-12-09T02:06:25.884Z,11.82
2022-12-09T02:08:54.063Z,12.07
2022-12-09T02:11:42.631Z,12.00
2022-12-09T02:14:25.726Z,11.60
2022-12-09T02:20:02.661Z,11.68
2022-12-09T02:22:38.465Z,11.20
2022-12-09T02:25:22.568Z,11.80
2022-12-09T02:28:04.479Z,11.90
2022-12-09T02:30:54.929Z,12.23
2022-12-09T02:33:34.500Z,12.45
2022-12-09T02:36:08.748Z,12.02
2022-12-09T02:38:38.248Z,12.07
2022-12-09T02:41:14.432Z,10.80
2022-12-09T02:43:50.128Z,12.18
2022-12-09T02:46:20.758Z,11.25
2022-12-09T02:48:59.294Z,11.50
2022-12-09T02:51:29.798Z,11.70
2022-12-09T02:54:07.030Z,11.90
2022-12-09T02:56:35.014Z,11.45
2022-12-09T02:59:01.950Z,11.52
2022-12-09T03:02:04.623Z,11.10
2022-12-09T03:04:32.342Z,11.77
2022-12-09T03:07:17.791Z,10.48
2022-12-09T03:09:48.387Z,12.40
2022-12-09T03:12:20.025Z,10.77
2022-12-09T03:14:52.784Z,11.27
2022-12-09T03:17:27.563Z,11.75
2022-12-09T03:19:58.899Z,11.10
2022-12-09T03:22:29.355Z,11.63
2022-12-09T03:25:04.876Z,11.23
2022-12-09T03:27:40.577Z,10.82
2022-12-09T03:30:09.854Z,10.65
2022-12-09T03:32:38.664Z,11.13
2022-12-09T03:35:10.837Z,10.85
2022-12-09T03:37:40.732Z,11.95
2022-12-09T03:40:14.069Z,10.88
2022-12-09T03:43:21.496Z,10.52
2022-12-09T03:45:49.050Z,11.13
2022-12-09T03:48:16.151Z,10.30
2022-12-09T03:50:53.023Z,9.98
2022-12-09T03:53:31.221Z,10.93
2022-12-09T03:56:15.349Z,10.80
2022-12-09T03:58:45.192Z,10.02
2022-12-09T04:01:12.917Z,10.32
2022-12-09T04:03:40.022Z,10.35
2022-12-09T04:06:07.499Z,11.10
2022-12-09T04:08:34.573Z,10.38
2022-12-09T04:11:01.517Z,11.02
2022-12-09T04:13:28.323Z,11.20
2022-12-09T04:15:55.414Z,10.05
2022-12-09T04:18:22.477Z,10.35
2022-12-09T04:20:49.611Z,10.60
2022-12-09T04:23:16.448Z,10.93
2022-12-09T04:25:43.278Z,11.23
2022-12-09T04:28:10.271Z,10.98
2022-12-09T04:30:37.381Z,9.73
2022-12-09T04:33:04.539Z,10.68
2022-12-09T04:35:31.295Z,11.55
2022-12-09T04:37:58.053Z,11.05
2022-12-09T04:40:25.110Z,10.57
2022-12-09T04:42:52.133Z,10.95
2022-12-09T04:45:19.114Z,11.63
2022-12-09T04:47:45.903Z,11.77
2022-12-09T04:50:13.963Z,11.30
2022-12-09T04:52:41.769Z,10.98
2022-12-09T04:55:09.939Z,11.20
2022-12-09T04:57:37.018Z,11.50
2022-12-09T05:00:07.155Z,11.27
2022-12-09T05:02:34.942Z,10.50
2022-12-09T05:05:02.058Z,10.85
2022-12-09T05:07:31.439Z,10.30
2022-12-09T05:09:59.180Z,10.57
2022-12-09T05:12:26.440Z,10.43
2022-12-09T05:14:53.494Z,9.95
2022-12-09T05:17:20.532Z,9.75
2022-12-09T05:19:48.017Z,9.93
2022-12-09T05:22:17.812Z,9.73
2022-12-09T05:24:46.801Z,10.38
2022-12-09T05:27:14.927Z,8.93
2022-12-09T05:29:41.891Z,9.90
2022-12-09T05:32:09.108Z,10.02
2022-12-09T05:34:36.556Z,10.13
2022-12-09T05:37:03.716Z,8.75
2022-12-09T05:39:31.017Z,9.27
2022-12-09T05:41:58.235Z,9.30
2022-12-09T05:44:25.177Z,10.15
2022-12-09T05:46:52.762Z,10.13
2022-12-09T05:49:19.718Z,9.38
2022-12-09T05:51:46.677Z,10.00
2022-12-09T05:54:13.651Z,10.48
2022-12-09T05:56:44.657Z,9.50
2022-12-09T05:59:15.069Z,10.07
2022-12-09T06:01:42.112Z,10.57
2022-12-09T06:04:09.383Z,10.50
2022-12-09T06:06:36.995Z,10.02
2022-12-09T06:09:04.406Z,10.82
2022-12-09T06:11:32.671Z,9.95
2022-12-09T06:14:00.231Z,9.18
2022-12-09T06:16:27.468Z,9.82
2022-12-09T06:18:55.195Z,10.18
2022-12-09T06:21:22.808Z,10.00
2022-12-09T06:23:51.657Z,10.60
2022-12-09T06:26:27.804Z,11.13
2022-12-09T06:28:56.080Z,11.75
2022-12-09T06:31:23.982Z,10.88
2022-12-09T06:33:56.443Z,12.48
2022-12-09T06:36:26.069Z,13.13
2022-12-09T06:38:54.761Z,11.98
2022-12-09T06:41:21.960Z,12.90
2022-12-09T06:43:49.418Z,12.32
2022-12-09T06:46:23.513Z,12.43
2022-12-09T06:48:51.372Z,12.98
2022-12-09T06:51:19.221Z,13.77
2022-12-09T06:53:46.971Z,13.90
2022-12-09T06:56:15.575Z,13.35
2022-12-09T06:58:44.394Z,14.02
2022-12-09T07:01:18.267Z,14.65
2022-12-09T07:03:49.136Z,13.23
2022-12-09T07:06:27.862Z,13.88
2022-12-09T07:08:56.640Z,14.45
2022-12-09T07:11:24.722Z,13.52
2022-12-09T07:13:52.176Z,13.70
2022-12-09T07:16:19.384Z,13.50
2022-12-09T07:18:46.835Z,14.82
2022-12-09T07:21:16.901Z,15.55
2022-12-09T07:23:44.709Z,13.27
2022-12-09T07:26:12.525Z,14.00
2022-12-09T07:28:42.614Z,13.27
2022-12-09T07:31:36.571Z,13.68
2022-12-09T07:34:04.903Z,14.27
2022-12-09T07:36:34.377Z,13.48
2022-12-09T07:39:07.887Z,14.70
2022-12-09T07:41:35.320Z,13.88
2022-12-09T07:44:02.665Z,14.25
2022-12-09T07:46:29.955Z,14.23
2022-12-09T07:48:57.803Z,23.13
2022-12-09T07:51:26.007Z,26.52
2022-12-09T07:53:54.064Z,21.17
2022-12-09T07:56:22.574Z,21.90
2022-12-09T07:58:53.515Z,22.30
2022-12-09T08:01:27.532Z,16.48
2022-12-09T08:03:55.653Z,14.65
2022-12-09T08:06:25.130Z,14.52
2022-12-09T08:08:52.967Z,13.57
2022-12-09T08:11:22.674Z,14.80
2022-12-09T08:13:53.105Z,13.77
2022-12-09T08:16:22.017Z,14.40
2022-12-09T08:18:50.541Z,13.32
2022-12-09T08:21:24.209Z,13.93
2022-12-09T08:23:52.358Z,13.82
2022-12-09T08:26:23.030Z,14.70
2022-12-09T08:28:50.901Z,15.30
2022-12-09T08:31:24.634Z,14.55
2022-12-09T08:33:53.961Z,13.98
2022-12-09T08:36:24.096Z,13.68
2022-12-09T08:38:51.157Z,14.50
2022-12-09T08:41:37.537Z,13.73
2022-12-09T08:44:17.425Z,14.75
2022-12-09T08:46:47.343Z,14.07
2022-12-09T08:49:19.048Z,15.55
2022-12-09T08:51:47.517Z,14.20
2022-12-09T08:54:14.627Z,15.65
2022-12-09T08:56:48.466Z,15.93
2022-12-09T08:59:16.391Z,14.32
2022-12-09T09:01:43.888Z,15.60
2022-12-09T09:04:13.558Z,15.32
2022-12-09T09:06:43.351Z,14.68
2022-12-09T09:09:12.548Z,15.10
2022-12-09T09:11:44.029Z,14.82
2022-12-09T09:14:13.307Z,13.30
2022-12-09T09:16:42.013Z,13.95
2022-12-09T09:19:12.760Z,14.25
2022-12-09T09:21:40.134Z,13.95
2022-12-09T09:24:12.811Z,13.27
2022-12-09T09:26:42.559Z,14.23
2022-12-09T09:29:18.244Z,14.38
2022-12-09T09:31:48.731Z,15.70
2022-12-09T09:34:18.054Z,15.57
2022-12-09T09:36:49.164Z,15.73
2022-12-09T09:39:16.189Z,15.98
2022-12-09T09:42:07.742Z,16.73
2022-12-09T09:44:46.276Z,16.88
2022-12-09T09:47:13.341Z,15.32
2022-12-09T09:49:46.997Z,15.02
2022-12-09T09:52:19.891Z,16.00
2022-12-09T09:54:49.538Z,16.92
2022-12-09T09:57:32.796Z,17.67
2022-12-09T10:02:58.768Z,16.17
2022-12-09T10:05:40.256Z,18.85
2022-12-09T10:08:46.935Z,18.20
2022-12-09T10:11:17.247Z,18.25
2022-12-09T10:13:51.674Z,18.58
2022-12-09T10:16:24.003Z,17.30
2022-12-09T10:19:24.629Z,16.95
2022-12-09T10:21:54.708Z,17.52
2022-12-09T10:24:47.908Z,17.90
2022-12-09T10:27:34.376Z,16.85
2022-12-09T10:30:11.590Z,16.45
2022-12-09T10:32:40.321Z,16.58
2022-12-09T10:35:26.936Z,15.85
2022-12-09T10:38:13.290Z,16.85
2022-12-09T10:40:46.968Z,15.00
2022-12-09T10:43:44.218Z,15.82
2022-12-09T10:46:24.339Z,15.80
2022-12-09T10:48:59.202Z,15.07
2022-12-09T10:51:27.425Z,15.60
2022-12-09T10:53:59.099Z,15.15
2022-12-09T10:56:30.028Z,15.15
2022-12-09T10:59:21.685Z,16.48
2022-12-09T11:01:58.511Z,15.90
2022-12-09T11:04:46.137Z,16.02
2022-12-09T11:07:25.015Z,15.23
2022-12-09T11:10:09.529Z,16.88
2022-12-09T11:12:44.149Z,16.25
2022-12-09T11:15:28.685Z,17.60
2022-12-09T11:18:00.555Z,18.13
2022-12-09T11:20:33.674Z,17.40
2022-12-09T11:23:13.386Z,17.65
2022-12-09T11:25:56.423Z,16.67
2022-12-09T11:28:33.012Z,17.98
2022-12-09T11:31:28.383Z,17.92
2022-12-09T11:34:08.425Z,17.90
2022-12-09T11:36:43.682Z,17.45
2022-12-09T11:39:32.939Z,16.63
2022-12-09T11:42:19.821Z,16.02
2022-12-09T11:45:07.210Z,16.70
2022-12-09T11:48:22.957Z,17.58
2022-12-09T11:50:42.364Z,16.98
2022-12-09T11:53:30.760Z,17.42
2022-12-09T11:56:23.005Z,16.90
2022-12-09T11:59:02.357Z,17.73
2022-12-09T12:01:48.280Z,17.52
2022-12-09T12:04:18.532Z,17.27
2022-12-09T12:06:56.763Z,17.90
2022-12-09T12:09:55.198Z,19.00
2022-12-09T12:12:39.112Z,20.65
2022-12-09T12:15:55.396Z,18.52
2022-12-09T12:18:23.081Z,18.20
2022-12-09T12:21:07.805Z,16.88
2022-12-09T12:23:55.784Z,16.83
2022-12-09T12:26:33.297Z,19.27
2022-12-09T12:29:08.389Z,17.38
2022-12-09T12:31:59.235Z,17.02
2022-12-09T12:34:43.231Z,17.20
2022-12-09T12:37:21.892Z,17.10
2022-12-09T12:40:26.381Z,17.02
2022-12-09T12:43:41.806Z,14.63
2022-12-09T12:46:23.292Z,15.93
2022-12-09T12:49:08.687Z,13.65
2022-12-09T12:51:54.423Z,14.43
2022-12-09T12:54:21.488Z,15.13
2022-12-09T12:57:13.783Z,15.20
2022-12-09T12:59:57.520Z,14.15
2022-12-09T13:02:44.563Z,14.15
2022-12-09T13:05:22.897Z,12.65
2022-12-09T13:07:58.917Z,12.95
2022-12-09T13:10:54.961Z,12.63
2022-12-09T13:13:48.413Z,13.48
2022-12-09T13:16:39.159Z,13.32
2022-12-09T13:19:13.844Z,13.45
2022-12-09T13:21:41.146Z,11.93
2022-12-09T13:24:27.128Z,11.30
2022-12-09T13:27:23.401Z,11.70
2022-12-09T13:30:10.035Z,12.90
2022-12-09T13:32:43.361Z,10.70
2022-12-09T13:35:18.864Z,13.15
2022-12-09T13:37:45.644Z,14.50
2022-12-09T13:40:39.101Z,12.32
2022-12-09T13:43:17.574Z,12.95
2022-12-09T13:45:44.409Z,12.75
2022-12-09T13:48:16.641Z,13.65
2022-12-09T13:53:21.109Z,12.10
2022-12-09T13:55:58.041Z,13.32
2022-12-09T13:58:37.645Z,14.55
2022-12-09T14:01:26.529Z,12.75
2022-12-09T14:03:59.189Z,13.02
2022-12-09T14:06:44.668Z,15.70
2022-12-09T14:09:23.364Z,16.35
2022-12-09T14:11:52.353Z,17.35
2022-12-09T14:14:25.306Z,17.58
2022-12-09T14:19:25.438Z,18.65
2022-12-09T14:22:17.760Z,18.77
2022-12-09T14:24:55.676Z,20.45
2022-12-09T14:27:27.471Z,18.30
2022-12-09T14:30:23.422Z,18.58
2022-12-09T14:32:50.133Z,20.35
2022-12-09T14:35:22.387Z,19.80
2022-12-09T14:38:00.826Z,19.75
2022-12-09T14:40:42.969Z,18.65
2022-12-09T14:43:25.170Z,18.58
2022-12-09T14:46:01.876Z,20.20
2022-12-09T14:48:34.846Z,20.17
2022-12-09T14:53:58.140Z,19.05
2022-12-09T14:56:26.774Z,21.58
2022-12-09T14:59:03.022Z,22.25
2022-12-09T15:01:30.094Z,23.38
2022-12-09T15:03:59.170Z,23.35
2022-12-09T15:06:27.042Z,23.73
2022-12-09T15:08:56.553Z,23.20
2022-12-09T15:11:31.566Z,24.05
2022-12-09T15:14:20.980Z,24.63
2022-12-09T15:16:50.938Z,26.52
2022-12-09T15:19:51.611Z,27.50
2022-12-09T15:22:33.816Z,27.70
2022-12-09T15:25:02.935Z,26.02
2022-12-09T15:27:29.964Z,26.05
2022-12-09T15:30:09.200Z,26.48
2022-12-09T15:32:39.423Z,26.63
2022-12-09T15:35:23.556Z,25.58
2022-12-09T15:37:52.765Z,26.08
2022-12-09T15:40:22.453Z,23.20
2022-12-09T15:42:56.241Z,22.95
2022-12-09T15:45:27.081Z,24.25
2022-12-09T15:48:03.092Z,23.33
2022-12-09T15:50:35.963Z,22.50
2022-12-09T15:53:16.721Z,23.02
2022-12-09T15:55:51.254Z,24.73
2022-12-09T15:58:27.015Z,24.75
2022-12-09T16:00:54.672Z,25.45
2022-12-09T16:03:33.058Z,27.40
2022-12-09T16:06:04.214Z,25.77
2022-12-09T16:08:37.581Z,27.17
2022-12-09T16:11:05.295Z,27.85
2022-12-09T16:13:32.469Z,27.23
2022-12-09T16:16:01.437Z,28.58
2022-12-09T16:18:52.168Z,26.88
2022-12-09T16:21:27.555Z,28.70
2022-12-09T16:24:04.423Z,30.65
2022-12-09T16:26:35.328Z,30.25
2022-12-09T16:29:14.192Z,29.27
2022-12-09T16:31:41.137Z,29.65
2022-12-09T16:34:22.136Z,32.50
2022-12-09T16:36:56.501Z,30.60
2022-12-09T16:39:26.264Z,30.95
2022-12-09T16:41:52.919Z,30.77
2022-12-09T16:44:27.089Z,33.03
2022-12-09T16:47:14.514Z,32.22
2022-12-09T16:49:44.345Z,32.00
2022-12-09T16:52:22.367Z,32.25
2022-12-09T16:54:50.568Z,32.50
2022-12-09T16:57:19.659Z,31.90
2022-12-09T16:59:47.012Z,33.25
2022-12-09T17:02:38.117Z,31.25
2022-12-09T17:05:06.056Z,33.17
2022-12-09T17:07:33.034Z,34.08
2022-12-09T17:09:59.790Z,33.00
2022-12-09T17:12:26.584Z,33.42
2022-12-09T17:14:53.518Z,32.92
2022-12-09T17:17:20.437Z,32.70
2022-12-09T17:19:47.294Z,33.00
2022-12-09T17:22:14.171Z,35.47
2022-12-09T17:24:40.988Z,32.92
2022-12-09T17:27:07.847Z,33.92
2022-12-09T17:29:34.660Z,35.58
2022-12-09T17:32:01.480Z,36.30
2022-12-09T17:34:28.360Z,33.72
2022-12-09T17:36:55.276Z,37.15
2022-12-09T17:39:24.573Z,35.70
2022-12-09T17:41:51.342Z,37.78
2022-12-09T17:44:18.137Z,35.65
2022-12-09T17:46:44.862Z,36.72
2022-12-09T17:49:11.633Z,37.95
2022-12-09T17:51:38.417Z,37.80
2022-12-09T17:54:05.574Z,36.58
2022-12-09T17:56:32.536Z,36.83
2022-12-09T17:59:02.805Z,37.35
2022-12-09T18:01:30.217Z,35.55
2022-12-09T18:04:04.415Z,36.28
2022-12-09T18:06:35.335Z,37.00
2022-12-09T18:09:04.073Z,37.80
2022-12-09T18:11:31.003Z,37.67
2022-12-09T18:13:58.305Z,41.00
2022-12-09T18:16:25.168Z,39.70
2022-12-09T18:18:52.409Z,37.38
2022-12-09T18:21:22.139Z,38.50
2022-12-09T18:23:49.022Z,38.97
2022-12-09T18:26:18.489Z,38.08
2022-12-09T18:28:45.499Z,36.65
2022-12-09T18:31:15.429Z,38.88
2022-12-09T18:33:42.861Z,41.58
2022-12-09T18:36:15.787Z,42.90
2022-12-09T18:38:43.120Z,40.45
2022-12-09T18:41:17.017Z,40.40
2022-12-09T18:43:46.783Z,41.72
2022-12-09T18:46:25.980Z,43.22
2022-12-09T18:49:01.343Z,41.35
2022-12-09T18:51:29.157Z,41.72
2022-12-09T18:53:58.452Z,44.38
2022-12-09T18:56:25.838Z,50.47
2022-12-09T18:59:09.513Z,43.58
2022-12-09T19:01:40.859Z,44.35
2022-12-09T19:04:12.854Z,41.53
2022-12-09T19:06:41.468Z,41.58
2022-12-09T19:09:11.679Z,42.08
2022-12-09T19:11:40.539Z,39.20
2022-12-09T19:14:08.732Z,41.50
2022-12-09T19:16:36.148Z,43.47
2022-12-09T19:19:09.209Z,43.08
2022-12-09T19:21:37.357Z,40.42
2022-12-09T19:24:04.305Z,40.10
2022-12-09T19:26:32.662Z,41.53
2022-12-09T19:29:05.911Z,43.13
2022-12-09T19:31:39.075Z,42.30
2022-12-09T19:34:17.546Z,39.67
2022-12-09T19:36:45.254Z,41.63
2022-12-09T19:39:13.787Z,42.67
2022-12-09T19:41:41.432Z,41.00
2022-12-09T19:44:09.834Z,39.45
2022-12-09T19:46:38.448Z,40.08
2022-12-09T19:49:05.495Z,39.75
2022-12-09T19:51:32.575Z,42.08
2022-12-09T19:54:02.161Z,40.95
2022-12-09T19:56:29.584Z,41.67
2022-12-09T19:58:57.132Z,38.67
2022-12-09T20:01:35.221Z,41.17
2022-12-09T20:04:46.893Z,39.40
2022-12-09T20:07:06.389Z,39.10
2022-12-09T20:09:35.150Z,42.17
2022-12-09T20:12:02.043Z,41.60
2022-12-09T20:14:28.870Z,43.53
2022-12-09T20:16:55.809Z,40.53
2022-12-09T20:19:25.029Z,43.25
2022-12-09T20:21:55.399Z,43.00
2022-12-09T20:24:26.635Z,42.72
2022-12-09T20:26:53.515Z,42.58
2022-12-09T20:29:20.317Z,40.20
2022-12-09T20:31:47.205Z,41.17
2022-12-09T20:34:18.904Z,40.28
2022-12-09T20:36:46.151Z,43.38
2022-12-09T20:39:20.968Z,45.95
2022-12-09T20:41:48.448Z,43.35
2022-12-09T20:44:16.079Z,42.53
2022-12-09T20:46:47.222Z,42.28
2022-12-09T20:49:14.106Z,44.55
2022-12-09T20:51:45.106Z,43.90
2022-12-09T20:54:12.641Z,42.90
2022-12-09T20:56:39.820Z,42.28
2022-12-09T20:59:08.742Z,44.83
2022-12-09T21:01:37.190Z,42.00
2022-12-09T21:04:06.434Z,47.17
2022-12-09T21:06:36.655Z,43.58
2022-12-09T21:09:06.658Z,45.20
2022-12-09T21:11:33.700Z,45.28
2022-12-09T21:14:02.699Z,45.13
2022-12-09T21:16:32.546Z,42.33
2022-12-09T21:19:05.760Z,42.08
2022-12-09T21:21:36.995Z,42.33
2022-12-09T21:24:04.622Z,42.05
2022-12-09T21:26:31.608Z,42.05
2022-12-09T21:29:00.543Z,44.03
2022-12-09T21:31:33.767Z,40.90
2022-12-09T21:34:03.449Z,42.72
2022-12-09T21:36:33.472Z,42.70
2022-12-09T21:39:01.405Z,40.92
2022-12-09T21:41:30.892Z,40.85
2022-12-09T21:43:58.040Z,42.45
2022-12-09T21:46:28.395Z,43.20
2022-12-09T21:49:02.981Z,50.75
2022-12-09T21:51:30.970Z,47.75
2022-12-09T21:53:57.738Z,46.85
2022-12-09T21:56:27.556Z,48.60
2022-12-09T21:58:56.650Z,49.50
2022-12-09T22:01:52.953Z,47.58
2022-12-09T22:04:19.841Z,45.97
2022-12-09T22:06:49.118Z,45.38
2022-12-09T22:09:17.606Z,46.13
2022-12-09T22:11:44.881Z,44.17
2022-12-09T22:14:12.115Z,47.33
2022-12-09T22:16:41.869Z,48.13
2022-12-09T22:19:13.732Z,46.30
2022-12-09T22:21:40.632Z,47.50
2022-12-09T22:24:09.225Z,47.55
2022-12-09T22:26:36.376Z,47.75
2022-12-09T22:29:05.731Z,47.75
2022-12-09T22:31:36.457Z,48.28
2022-12-09T22:34:07.359Z,45.85
2022-12-09T22:36:36.819Z,96.68
2022-12-09T22:39:06.896Z,51.53
2022-12-09T22:41:34.459Z,50.95
2022-12-09T22:44:01.510Z,53.47
2022-12-09T22:46:30.922Z,50.38
2022-12-09T22:49:01.686Z,49.67
2022-12-09T22:51:31.653Z,47.17
2022-12-09T22:53:59.366Z,45.75
2022-12-09T22:56:26.728Z,45.78
2022-12-09T22:58:54.277Z,44.50
2022-12-09T23:01:33.498Z,44.05
2022-12-09T23:04:01.171Z,44.75
2022-12-09T23:06:29.171Z,45.72
2022-12-09T23:08:56.755Z,45.15
2022-12-09T23:11:25.701Z,46.92
2022-12-09T23:13:53.387Z,44.92
2022-12-09T23:16:23.296Z,47.08
2022-12-09T23:18:51.429Z,44.42
2022-12-09T23:21:21.474Z,43.53
2022-12-09T23:23:48.379Z,44.35
2022-12-09T23:26:18.090Z,44.97
2022-12-09T23:28:47.626Z,44.03
2022-12-09T23:31:16.852Z,41.42
2022-12-09T23:33:45.149Z,43.15
2022-12-09T23:36:14.808Z,39.92
2022-12-09T23:38:42.094Z,43.28
2022-12-09T23:41:10.236Z,44.13
2022-12-09T23:43:38.390Z,40.50
2022-12-09T23:46:13.040Z,42.35
2022-12-09T23:48:42.793Z,44.50
2022-12-09T23:51:14.779Z,42.45
2022-12-09T23:53:43.329Z,42.42
2022-12-09T23:56:15.251Z,44.30
2022-12-09T23:58:42.825Z,46.10
